createdAt,value
2022-12-15T00:02:30.283Z,0.47
2022-12-15T00:05:17.859Z,0.48
2022-12-15T00:08:05.160Z,0.47
2022-12-15T00:10:52.509Z,0.45
2022-12-15T00:13:39.886Z,0.43
2022-12-15T00:24:14.971Z,0.34
2022-12-15T00:27:02.021Z,0.27
2022-12-15T00:29:49.558Z,0.22
2022-12-15T00:32:36.651Z,0.16
2022-12-15T00:35:23.934Z,0.12
2022-12-15T00:38:10.859Z,0.07
2022-12-15T00:40:39.152Z,0.05
2022-12-15T00:43:12.293Z,0.05
2022-12-15T00:45:59.663Z,0.06
2022-12-15T00:48:27.998Z,0.07
2022-12-15T00:50:56.324Z,0.08
2022-12-15T00:53:43.939Z,0.08
2022-12-15T00:56:30.839Z,0.09
2022-12-15T00:59:17.813Z,0.09
2022-12-15T01:02:05.436Z,0.08
2022-12-15T01:04:52.403Z,0.09
2022-12-15T01:07:39.235Z,0.10
2022-12-15T01:10:26.167Z,0.12
2022-12-15T01:13:13.079Z,0.13
2022-12-15T01:16:00.135Z,0.15
2022-12-15T01:18:49.557Z,0.17
2022-12-15T01:21:20.801Z,0.19
2022-12-15T01:23:53.243Z,0.22
2022-12-15T01:26:21.628Z,0.23
2022-12-15T01:28:49.880Z,0.23
2022-12-15T01:31:18.235Z,0.24
2022-12-15T01:33:46.507Z,0.25
2022-12-15T01:36:15.220Z,0.27
2022-12-15T01:38:43.892Z,0.27
2022-12-15T01:41:13.367Z,0.26
2022-12-15T01:43:41.823Z,0.26
2022-12-15T01:46:18.381Z,0.26
2022-12-15T01:49:00.237Z,0.26
2022-12-15T01:51:37.833Z,0.27
2022-12-15T01:54:32.513Z,0.27
2022-12-15T01:57:07.989Z,0.28
2022-12-15T01:59:43.547Z,0.28
2022-12-15T02:02:15.076Z,0.29
2022-12-15T02:04:46.218Z,0.29
2022-12-15T02:07:15.255Z,0.31
2022-12-15T02:09:47.194Z,0.29
2022-12-15T02:12:55.244Z,0.30
2022-12-15T02:15:42.976Z,0.30
2022-12-15T02:18:17.357Z,0.29
2022-12-15T02:21:17.859Z,0.28
2022-12-15T02:24:08.418Z,0.25
2022-12-15T02:26:51.783Z,0.22
2022-12-15T02:29:38.585Z,0.20
2022-12-15T02:32:11.585Z,0.17
2022-12-15T02:34:46.906Z,0.14
2022-12-15T02:37:22.789Z,0.13
2022-12-15T02:39:51.114Z,0.12
2022-12-15T02:42:19.842Z,0.11
2022-12-15T02:45:20.157Z,0.11
2022-12-15T02:48:05.754Z,0.07
2022-12-15T02:50:52.776Z,0.05
2022-12-15T02:53:56.574Z,0.04
2022-12-15T02:56:56.556Z,-0.02
2022-12-15T02:59:36.397Z,-0.03
2022-12-15T03:02:08.934Z,-0.04
2022-12-15T03:04:37.502Z,-0.05
2022-12-15T03:07:09.488Z,-0.06
2022-12-15T03:09:37.810Z,-0.05
2022-12-15T03:12:06.510Z,-0.04
2022-12-15T03:14:34.805Z,-0.05
2022-12-15T03:17:04.388Z,-0.03
2022-12-15T03:19:32.702Z,-0.01
2022-12-15T03:22:01.051Z,0.02
2022-12-15T03:24:29.310Z,0.04
2022-12-15T03:26:57.658Z,0.04
2022-12-15T03:29:25.937Z,0.04
2022-12-15T03:31:54.249Z,0.04
2022-12-15T03:34:22.808Z,0.04
2022-12-15T03:36:51.130Z,0.05
2022-12-15T03:39:19.578Z,0.05
2022-12-15T03:41:47.882Z,0.05
2022-12-15T03:44:16.133Z,0.04
2022-12-15T03:46:44.441Z,0.04
2022-12-15T03:49:12.699Z,0.05
2022-12-15T03:51:40.949Z,0.05
2022-12-15T03:54:09.267Z,0.04
2022-12-15T03:56:37.534Z,0.06
2022-12-15T03:59:06.052Z,0.07
2022-12-15T04:01:36.100Z,0.06
2022-12-15T04:04:05.454Z,0.05
2022-12-15T04:06:33.849Z,0.05
2022-12-15T04:09:02.086Z,0.05
2022-12-15T04:11:30.780Z,0.05
